Search for airport 
image banner adimage banner adimage banner ad
image banner ad

CA02 - Frank R Howard Memorial Hospital

Located in Willits, United States

ICAO - CA02, IATA -

Data provided by Airmate  

General information

Coordinates: N39°23'21" W123°20'21"
Elevation is 1401 feet MSL.
Magnetic variation is 14° East
View others Airports in California

Operational data

Special qualification required
Current time UTC:
Current local time:
Weather at : KUKI - Ukiah Muni ( 32 km )
METAR: KUKI 231456Z AUTO 00000KT 10SM CLR 13/07 A2999 RMK AO2 SLP149 T01280067 53004
TAF: KUKI 231137Z 2312/2412 VRB03KT P6SM FEW250 FM232200 28009KT P6SM FEW250 FM240300 VRB02KT P6SM SKC
View NOTAMs / SUP AIP / TFR affecting this airport [VIEW]
Communications frequencies: [VIEW]

Runways:

Airport contact information

Address: Willits United States

Satellite view of CA02